DW8209 Gubbio IT current weather conditions

sailwx.info

Wind from 205

Air temperature 20.6° C
Dewpoint 15.5° C

Last reported at 2015-Aug-03 20:49 UTC.
Time now 2015-Aug-03 21:25 UTC

Location: N 43°19' E 012°34'.
View on Google Maps.

See reports from other nearby stations

  
Tides and Currents Weather Stations Pressure Air Temp Water Temp Dewpoint Dewpoint Depression Visibility Wind Speed Wind Dir Waves Ship Positions
date/time (UTC)wind fromknots sea level pressurealtimeterstation pressurevisibilityair tempwater tempwave heightnotes
2015-Aug-03 20:49 205 20.6
2015-Aug-03 20:34 349 21.1
2015-Aug-03 20:19 150 0 gusting 2 21.7
2015-Aug-03 20:04 284 1 gusting 3 22.8
2015-Aug-03 19:49 116 22.8
2015-Aug-03 19:34 278 23.3
2015-Aug-03 19:19 349 1 gusting 3 23.9
2015-Aug-03 19:04 328 1 gusting 4 24.4
2015-Aug-03 18:49 016 0 gusting 4 25.0
2015-Aug-03 18:36 054 1 gusting 2 25.0
2015-Aug-03 18:19 061 2 gusting 6 25.6
2015-Aug-03 18:04 050 3 gusting 5 26.7
2015-Aug-03 17:49 027 2 gusting 4 27.2
2015-Aug-03 17:34 049 4 gusting 7 27.2
2015-Aug-03 17:19 032 3 gusting 8 27.8
2015-Aug-03 17:04 011 4 gusting 6 27.8
2015-Aug-03 16:49 309 4 gusting 8 28.3
2015-Aug-03 16:34 329 5 gusting 8 28.3
2015-Aug-03 16:19 340 5 gusting 8 28.3
2015-Aug-03 16:04 357 4 gusting 8 28.9
2015-Aug-03 15:49 315 4 gusting 9 28.9
2015-Aug-03 15:34 328 5 gusting 11 28.9
2015-Aug-03 15:19 354 6 gusting 9 28.9
2015-Aug-03 15:04 021 6 gusting 9 28.9
2015-Aug-03 14:49 016 8 gusting 13 29.4
2015-Aug-03 14:34 354 5 gusting 11 29.4
2015-Aug-03 14:19 356 3 gusting 9 28.9
2015-Aug-03 14:04 281 5 gusting 10 29.4
2015-Aug-03 13:49 023 5 gusting 8 29.4
2015-Aug-03 13:34 356 6 gusting 8 28.9
2015-Aug-03 13:19 360 4 gusting 6 28.9
2015-Aug-03 13:04 067 5 gusting 9 28.3
2015-Aug-03 12:49 065 3 gusting 6 28.3
2015-Aug-03 12:34 034 2 gusting 6 28.3
2015-Aug-03 12:19 333 2 gusting 7 28.3
2015-Aug-03 12:04 056 5 gusting 6 27.8
2015-Aug-03 11:49 063 6 gusting 9 27.2
2015-Aug-03 11:34 043 5 gusting 9 27.2
2015-Aug-03 11:18 051 6 gusting 10 27.2
2015-Aug-03 11:03 068 5 gusting 8 27.2
2015-Aug-03 10:48 094 3 gusting 5 27.2
2015-Aug-03 10:33 070 5 gusting 7 26.7
2015-Aug-03 10:18 030 5 gusting 7 26.1
2015-Aug-03 10:03 086 5 gusting 8 25.6
2015-Aug-03 09:48 061 4 gusting 6 25.6
2015-Aug-03 09:33 101 5 gusting 7 25.6
2015-Aug-03 09:18 041 3 gusting 8 25.0
2015-Aug-03 09:03 043 1 gusting 10 24.4
2015-Aug-03 08:47 035 4 gusting 12 24.4
2015-Aug-03 08:32 023 7 gusting 12 24.4
2015-Aug-03 08:17 325 1 gusting 3 23.9
2015-Aug-03 08:02 040 1 gusting 6 23.3
2015-Aug-03 07:47 284 4 gusting 7 22.2
2015-Aug-03 07:32 307 2 gusting 5 21.7
2015-Aug-03 07:17 268 21.7
2015-Aug-03 07:02 070 21.1
2015-Aug-03 06:47 097 1 gusting 3 20.6
2015-Aug-03 06:32 120 1 gusting 2 21.1
2015-Aug-03 06:17 180 20.6
2015-Aug-03 06:02 115 0 gusting 1 19.4
2015-Aug-03 05:47 273 18.3
2015-Aug-03 05:32 277 17.8
2015-Aug-03 05:16 257 17.2
2015-Aug-03 05:01
2015-Aug-03 04:46
2015-Aug-03 04:31
2015-Aug-03 04:16
2015-Aug-03 04:01 053 16.1
2015-Aug-03 03:47 052 16.1
2015-Aug-03 03:31 063 16.1
2015-Aug-03 03:16 100 16.7
2015-Aug-03 03:01 129 16.7
2015-Aug-03 02:46 131 16.7
2015-Aug-03 02:31 131 16.7
2015-Aug-03 02:16 131 16.7
2015-Aug-03 02:01 131 16.7
2015-Aug-03 01:46 131 16.7
2015-Aug-03 01:31 131 16.7
2015-Aug-03 01:16 131 17.2
2015-Aug-03 01:01 131 17.2
2015-Aug-03 00:46 284 0 gusting 2 17.2
2015-Aug-03 00:31 278 0 gusting 1 17.2
2015-Aug-03 00:16 255 0 gusting 2 17.2
2015-Aug-03 00:01 269 1 gusting 2 17.2
2015-Aug-02 23:46 128 17.2
2015-Aug-02 23:31 128 17.2
2015-Aug-02 23:16 120 0 gusting 1 17.2
2015-Aug-02 23:01 141 17.2
2015-Aug-02 22:46 236 17.8
2015-Aug-02 22:31 129 17.8
2015-Aug-02 22:15 129 17.8
2015-Aug-02 22:00 129 17.8
2015-Aug-02 21:45 118 17.8
2015-Aug-02 21:30 221 18.3
2015-Aug-02 21:15 253 18.3
2015-Aug-02 21:00 257 18.3
2015-Aug-02 20:45 231 18.9
2015-Aug-02 20:30 232 18.9
2015-Aug-02 20:15 255 18.9
2015-Aug-02 20:00 273 0 gusting 2 18.9
2015-Aug-02 19:45 263 18.9
2015-Aug-02 19:30 246 18.9
2015-Aug-02 19:15 228 19.4
2015-Aug-02 19:00 222 19.4
2015-Aug-02 18:45 274 0 gusting 1 19.4
2015-Aug-02 18:30 264 20.0
2015-Aug-02 18:15 278 0 gusting 2 20.0
2015-Aug-02 18:00 297 0 gusting 2 19.4
2015-Aug-02 17:45 210 20.0
2015-Aug-02 17:30 211 1 gusting 2 19.4
2015-Aug-02 17:00 226 2 gusting 3 20.0
2015-Aug-02 16:45 006 5 gusting 7 20.0
2015-Aug-02 16:33
2015-Aug-02 16:09 089 2 gusting 9 24.4
2015-Aug-02 15:54 087 5 gusting 6 25.0
2015-Aug-02 15:39 056 6 gusting 10 25.0
2015-Aug-02 15:24 079 7 gusting 14 25.6
2015-Aug-02 15:09 081 8 gusting 13 25.6
2015-Aug-02 14:54 114 9 gusting 13 25.6
2015-Aug-02 14:38 084 13 gusting 20 26.7
2015-Aug-02 14:23 081 6 gusting 10 28.9
2015-Aug-02 14:08 056 7 gusting 9 28.9
2015-Aug-02 13:53 058 6 gusting 8 30.6
2015-Aug-02 13:38 127 2 gusting 5 30.6
2015-Aug-02 13:23 198 1 gusting 7 30.6
2015-Aug-02 13:08 233 3 gusting 10 30.6
2015-Aug-02 12:53 159 2 gusting 7 31.1
2015-Aug-02 12:38 197 3 gusting 7 30.6
2015-Aug-02 12:23 190 3 gusting 7 30.6
2015-Aug-02 12:08 184 0 gusting 3 30.0
2015-Aug-02 11:53 287 1 gusting 6 30.0
2015-Aug-02 11:38 288 0 gusting 4 30.0
2015-Aug-02 11:23 259 2 gusting 5 28.9
2015-Aug-02 11:08 186 28.3
2015-Aug-02 10:53 026 1 gusting 5 27.8
2015-Aug-02 10:38 317 1 gusting 4 27.8
2015-Aug-02 10:23 243 0 gusting 2 27.8
2015-Aug-02 10:08 078 2 gusting 5 26.7
2015-Aug-02 09:53 098 1 gusting 4 27.2
2015-Aug-02 09:38 209 1 gusting 3 27.2
2015-Aug-02 09:23 112 26.7
2015-Aug-02 09:08 098 0 gusting 3 26.1
2015-Aug-02 08:53 029 0 gusting 3 25.6
2015-Aug-02 08:38 049 25.0
2015-Aug-02 08:23 040 3 gusting 4 25.6
2015-Aug-02 08:08 353 0 gusting 2 25.0
2015-Aug-02 07:53 121 24.4
2015-Aug-02 07:38 082 0 gusting 3 25.0
2015-Aug-02 07:23 101 1 gusting 4 24.4
2015-Aug-02 07:07 064 24.4
2015-Aug-02 06:52 215 22.2
2015-Aug-02 06:37 287 21.1
2015-Aug-02 06:22 302 20.0
2015-Aug-02 06:07 303 0 gusting 1 20.0
2015-Aug-02 05:52 318 19.4
2015-Aug-02 05:37 319 18.9
2015-Aug-02 05:22 222 18.3
2015-Aug-02 05:07 222 17.8
2015-Aug-02 04:52 219 17.2
2015-Aug-02 04:37
2015-Aug-02 04:22
2015-Aug-02 04:07
2015-Aug-02 03:52
2015-Aug-02 03:37
2015-Aug-02 03:22
2015-Aug-02 03:07 251 17.2
2015-Aug-02 02:52 251 17.2
2015-Aug-02 02:37 252 17.8
2015-Aug-02 02:22 252 17.8
2015-Aug-02 02:07 302 1 gusting 3 18.3
2015-Aug-02 01:52 283 1 gusting 2 18.3
2015-Aug-02 01:36 302 0 gusting 2 18.3
2015-Aug-02 01:21 204 18.3
2015-Aug-02 01:06 204 18.3
2015-Aug-02 00:51 278 1 gusting 3 18.9
2015-Aug-02 00:36 284 1 gusting 3 18.9
2015-Aug-02 00:21 301 1 gusting 4 18.9
2015-Aug-02 00:06 291 19.4
2015-Aug-01 23:51 273 19.4
2015-Aug-01 23:36 273 20.0
2015-Aug-01 23:21 267 20.0
2015-Aug-01 23:06 246 20.0
2015-Aug-01 22:51 285 2 gusting 4 20.0
2015-Aug-01 22:36 284 2 gusting 2 20.0
2015-Aug-01 22:21 203 20.6
2015-Aug-01 22:06 203 21.1
2015-Aug-01 21:51 335 21.7
2015-Aug-01 21:36 334 21.7
2015-Aug-01 21:21 295 0 gusting 4 22.2
2015-Aug-01 21:06 293 1 gusting 5 23.3